createdAt,value
2018-12-04T00:02:19.919Z,10.10
2018-12-04T00:04:47.593Z,10.20
2018-12-04T00:07:15.121Z,10.20
2018-12-04T00:09:42.758Z,10.20
2018-12-04T00:12:10.350Z,10.20
2018-12-04T00:14:37.907Z,10.20
2018-12-04T00:17:05.457Z,10.20
2018-12-04T00:19:33.033Z,10.20
2018-12-04T00:22:00.570Z,10.30
2018-12-04T00:24:28.150Z,10.30
2018-12-04T00:26:55.671Z,10.30
2018-12-04T00:29:23.252Z,10.30
2018-12-04T00:31:50.780Z,10.30
2018-12-04T00:34:18.312Z,10.40
2018-12-04T00:36:45.859Z,10.30
2018-12-04T00:39:13.388Z,10.30
2018-12-04T00:41:40.945Z,10.30
2018-12-04T00:44:08.528Z,10.30
2018-12-04T00:46:36.073Z,10.20
2018-12-04T00:49:03.654Z,10.20
2018-12-04T00:51:31.233Z,10.20
2018-12-04T00:53:58.769Z,10.20
2018-12-04T00:56:26.319Z,10.20
2018-12-04T00:58:53.917Z,10.20
2018-12-04T01:01:21.542Z,10.20
2018-12-04T01:03:49.116Z,10.10
2018-12-04T01:06:16.700Z,10.10
2018-12-04T01:08:44.285Z,10.20
2018-12-04T01:11:11.848Z,10.20
2018-12-04T01:13:39.376Z,10.10
2018-12-04T01:16:06.978Z,10.20
2018-12-04T01:18:34.518Z,10.20
2018-12-04T01:21:02.074Z,10.20
2018-12-04T01:23:29.605Z,10.10
2018-12-04T01:25:57.159Z,10.20
2018-12-04T01:28:24.719Z,10.10
2018-12-04T01:30:52.274Z,10.10
2018-12-04T01:33:19.839Z,10.10
2018-12-04T01:35:47.487Z,10.10
2018-12-04T01:38:15.035Z,10.10
2018-12-04T01:40:42.638Z,10.00
2018-12-04T01:43:10.209Z,10.00
2018-12-04T01:45:37.780Z,10.00
2018-12-04T01:48:05.352Z,10.00
2018-12-04T01:50:33.009Z,10.00
2018-12-04T01:53:00.665Z,10.00
2018-12-04T01:55:28.238Z,10.00
2018-12-04T01:57:55.810Z,10.00
2018-12-04T02:00:23.368Z,10.10
2018-12-04T02:02:50.938Z,10.10
2018-12-04T02:05:18.492Z,10.10
2018-12-04T02:07:46.057Z,10.10
2018-12-04T02:10:13.612Z,10.10
2018-12-04T02:12:41.169Z,10.10
2018-12-04T02:15:08.817Z,10.10
2018-12-04T02:17:36.466Z,10.10
2018-12-04T02:20:04.451Z,10.20
2018-12-04T02:22:32.131Z,10.20
2018-12-04T02:24:59.683Z,10.20
2018-12-04T02:27:27.837Z,10.20
2018-12-04T02:29:55.403Z,10.20
2018-12-04T02:32:22.981Z,10.20
2018-12-04T02:34:50.509Z,10.20
2018-12-04T02:37:18.062Z,10.30
2018-12-04T02:39:45.670Z,10.30
2018-12-04T02:42:13.209Z,10.40
2018-12-04T02:44:40.905Z,10.40
2018-12-04T02:47:08.483Z,10.40
2018-12-04T02:49:36.047Z,10.30
2018-12-04T02:52:03.673Z,10.30
2018-12-04T02:54:31.236Z,10.30
2018-12-04T02:56:58.789Z,10.20
2018-12-04T02:59:26.359Z,10.30
2018-12-04T03:01:53.896Z,10.20
2018-12-04T03:04:21.449Z,10.20
2018-12-04T03:06:48.997Z,10.20
2018-12-04T03:09:16.586Z,10.10
2018-12-04T03:11:44.196Z,10.00
2018-12-04T03:14:11.765Z,10.00
2018-12-04T03:16:39.305Z,9.90
2018-12-04T03:19:06.880Z,9.80
2018-12-04T03:21:34.450Z,9.80
2018-12-04T03:24:02.033Z,9.70
2018-12-04T03:26:29.639Z,9.70
2018-12-04T03:28:57.246Z,9.60
2018-12-04T03:31:24.793Z,9.60
2018-12-04T03:33:52.311Z,9.50
2018-12-04T03:36:19.906Z,9.40
2018-12-04T03:38:47.427Z,9.40
2018-12-04T03:41:14.999Z,9.40
2018-12-04T03:43:42.749Z,9.40
2018-12-04T03:46:10.362Z,9.30
2018-12-04T03:48:37.953Z,9.30
2018-12-04T03:51:05.557Z,9.30
2018-12-04T03:53:33.084Z,9.30
2018-12-04T03:56:00.662Z,9.20
2018-12-04T03:58:28.191Z,9.20
2018-12-04T04:00:55.783Z,9.20
2018-12-04T04:03:23.387Z,9.20
2018-12-04T04:05:51.059Z,9.00
2018-12-04T04:08:18.643Z,9.10
2018-12-04T04:10:46.306Z,9.00
2018-12-04T04:13:13.993Z,8.90
2018-12-04T04:15:41.542Z,8.80
2018-12-04T04:18:09.141Z,8.80
2018-12-04T04:20:36.781Z,8.80
2018-12-04T04:23:04.362Z,8.80
2018-12-04T04:25:31.932Z,8.80
2018-12-04T04:27:59.514Z,8.70
2018-12-04T04:30:27.060Z,8.70
2018-12-04T04:32:54.629Z,8.60
2018-12-04T04:35:22.156Z,8.60
2018-12-04T04:37:49.707Z,8.50
2018-12-04T04:40:17.298Z,8.60
2018-12-04T04:42:44.927Z,8.50
2018-12-04T04:45:12.514Z,8.50
2018-12-04T04:47:40.058Z,8.50
2018-12-04T04:50:07.616Z,8.40
2018-12-04T04:52:35.155Z,8.40
2018-12-04T04:55:02.755Z,8.30
2018-12-04T04:57:30.327Z,8.30
2018-12-04T04:59:57.862Z,8.20
2018-12-04T05:02:25.467Z,8.20
2018-12-04T05:04:53.009Z,8.10
2018-12-04T05:07:20.555Z,8.10
2018-12-04T05:09:48.101Z,8.10
2018-12-04T05:12:15.679Z,8.10
2018-12-04T05:14:43.224Z,8.10
2018-12-04T05:17:10.863Z,8.10
2018-12-04T05:19:38.540Z,8.10
2018-12-04T05:22:06.977Z,8.10
2018-12-04T05:24:34.555Z,8.00
2018-12-04T05:27:02.137Z,8.10
2018-12-04T05:29:29.718Z,8.10
2018-12-04T05:31:57.261Z,8.00
2018-12-04T05:34:24.841Z,8.00
2018-12-04T05:36:52.379Z,8.00
2018-12-04T05:39:19.932Z,8.00
2018-12-04T05:41:47.446Z,8.00
2018-12-04T05:44:15.089Z,8.00
2018-12-04T05:46:42.648Z,8.00
2018-12-04T05:49:10.227Z,8.00
2018-12-04T05:51:37.755Z,8.00
2018-12-04T05:54:05.475Z,8.00
2018-12-04T05:56:33.001Z,8.00
2018-12-04T05:59:00.547Z,8.10
2018-12-04T06:01:28.101Z,8.10
2018-12-04T06:03:55.672Z,8.00
2018-12-04T06:06:23.253Z,8.10
2018-12-04T06:08:50.885Z,8.00
2018-12-04T06:11:18.439Z,8.00
2018-12-04T06:13:46.024Z,8.00
2018-12-04T06:16:13.555Z,8.00
2018-12-04T06:18:41.175Z,8.00
2018-12-04T06:21:08.886Z,7.90
2018-12-04T06:23:36.439Z,7.90
2018-12-04T06:26:04.060Z,7.90
2018-12-04T06:28:31.640Z,7.80
2018-12-04T06:30:59.855Z,7.80
2018-12-04T06:33:27.418Z,7.80
2018-12-04T06:35:54.997Z,7.80
2018-12-04T06:38:22.529Z,7.80
2018-12-04T06:40:50.080Z,7.70
2018-12-04T06:43:17.607Z,7.70
2018-12-04T06:45:45.169Z,7.70
2018-12-04T06:48:12.758Z,7.70
2018-12-04T06:50:40.387Z,7.70
2018-12-04T06:53:07.949Z,7.70
2018-12-04T06:55:35.505Z,7.70
2018-12-04T06:58:03.054Z,7.70
2018-12-04T07:00:30.638Z,7.70
2018-12-04T07:02:58.172Z,7.70
2018-12-04T07:05:25.776Z,7.70
2018-12-04T07:07:53.344Z,7.70
2018-12-04T07:10:20.931Z,7.60
2018-12-04T07:12:48.454Z,7.60
2018-12-04T07:15:16.061Z,7.60
2018-12-04T07:17:43.614Z,7.70
2018-12-04T07:20:11.224Z,7.70
2018-12-04T07:22:38.757Z,7.70
2018-12-04T07:25:06.450Z,7.70
2018-12-04T07:27:33.980Z,7.60
2018-12-04T07:30:01.563Z,7.60
2018-12-04T07:32:29.244Z,7.60
2018-12-04T07:34:56.908Z,7.60
2018-12-04T07:37:24.446Z,7.60
2018-12-04T07:39:51.999Z,7.60
2018-12-04T07:42:21.011Z,7.50
2018-12-04T07:44:48.550Z,7.60
2018-12-04T07:47:16.112Z,7.60
2018-12-04T07:49:43.640Z,7.60
2018-12-04T07:52:11.705Z,7.60
2018-12-04T07:54:39.247Z,7.60
2018-12-04T07:57:06.801Z,7.60
2018-12-04T07:59:34.347Z,7.60
2018-12-04T08:02:01.887Z,7.70
2018-12-04T08:04:29.416Z,7.90
2018-12-04T08:06:56.962Z,8.00
2018-12-04T08:09:24.477Z,8.10
2018-12-04T08:11:52.036Z,8.30
2018-12-04T08:14:19.575Z,8.60
2018-12-04T08:16:47.129Z,9.20
2018-12-04T08:19:14.700Z,9.70
2018-12-04T08:21:42.253Z,10.40
2018-12-04T08:24:09.917Z,10.90
2018-12-04T08:26:37.484Z,11.50
2018-12-04T08:29:05.037Z,11.90
2018-12-04T08:31:32.634Z,12.10
2018-12-04T08:34:00.172Z,12.10
2018-12-04T08:36:27.724Z,12.70
2018-12-04T08:38:55.268Z,12.40
2018-12-04T08:41:22.924Z,12.60
2018-12-04T08:43:50.603Z,12.60
2018-12-04T08:46:18.139Z,13.10
2018-12-04T08:48:45.715Z,13.20
2018-12-04T08:51:13.233Z,13.00
2018-12-04T08:53:40.802Z,12.90
2018-12-04T08:56:08.353Z,13.20
2018-12-04T08:58:35.915Z,13.80
2018-12-04T09:01:03.504Z,14.30
2018-12-04T09:03:31.100Z,14.20
2018-12-04T09:05:58.624Z,14.10
2018-12-04T09:08:26.181Z,13.60
2018-12-04T09:10:53.712Z,13.90
2018-12-04T09:13:21.277Z,13.80
2018-12-04T09:15:48.836Z,13.20
2018-12-04T09:18:16.443Z,12.80
2018-12-04T09:20:44.115Z,12.50
2018-12-04T09:23:11.693Z,11.60
2018-12-04T09:25:39.370Z,10.40
2018-12-04T09:28:07.123Z,10.00
2018-12-04T09:30:34.801Z,10.20
2018-12-04T09:33:02.364Z,10.80
2018-12-04T09:35:29.910Z,10.50
2018-12-04T09:37:57.448Z,9.90
2018-12-04T09:40:25.112Z,10.20
2018-12-04T09:42:52.704Z,11.20
2018-12-04T09:45:20.292Z,11.30
2018-12-04T09:47:47.839Z,11.90
2018-12-04T09:50:15.389Z,12.80
2018-12-04T09:52:42.957Z,13.10
2018-12-04T09:55:10.530Z,12.80
2018-12-04T09:57:38.060Z,13.60
2018-12-04T10:00:07.311Z,13.80
2018-12-04T10:02:34.843Z,13.60
2018-12-04T10:05:02.418Z,13.40
2018-12-04T10:07:29.953Z,13.30
2018-12-04T10:10:00.657Z,13.00
2018-12-04T10:12:27.072Z,13.30
2018-12-04T10:14:54.631Z,13.20
2018-12-04T10:17:22.169Z,12.90
2018-12-04T10:19:49.794Z,11.90
2018-12-04T10:22:17.331Z,11.30
2018-12-04T10:24:44.864Z,11.00
2018-12-04T10:27:12.380Z,10.60
2018-12-04T10:29:39.925Z,10.50
2018-12-04T10:32:07.469Z,10.10
2018-12-04T10:34:35.021Z,10.10
2018-12-04T10:37:02.592Z,10.40
2018-12-04T10:39:30.180Z,10.70
2018-12-04T10:41:57.713Z,11.00
2018-12-04T10:44:25.287Z,11.90
2018-12-04T10:46:52.808Z,12.60
2018-12-04T10:49:20.366Z,13.40
2018-12-04T10:51:47.908Z,14.50
2018-12-04T10:54:15.521Z,14.80
2018-12-04T10:56:43.047Z,15.10
2018-12-04T10:59:10.572Z,15.10
2018-12-04T11:01:43.874Z,14.40
2018-12-04T11:04:11.410Z,13.50
2018-12-04T11:06:40.928Z,13.60
2018-12-04T11:09:08.688Z,14.50
2018-12-04T11:11:36.279Z,14.70
2018-12-04T11:14:03.878Z,14.30
2018-12-04T11:16:31.433Z,14.70
2018-12-04T11:18:58.987Z,13.70
2018-12-04T11:21:26.546Z,14.50
2018-12-04T11:23:54.068Z,14.80
2018-12-04T11:26:21.654Z,15.80
2018-12-04T11:28:49.194Z,16.10
2018-12-04T11:31:16.741Z,16.70
2018-12-04T11:33:44.307Z,15.50
2018-12-04T11:36:11.858Z,13.20
2018-12-04T11:38:39.381Z,13.70
2018-12-04T11:41:06.931Z,14.50
2018-12-04T11:43:34.501Z,14.10
2018-12-04T11:46:02.083Z,14.90
2018-12-04T11:48:29.617Z,15.40
2018-12-04T11:51:00.198Z,15.90
2018-12-04T11:53:26.770Z,16.10
2018-12-04T11:55:54.469Z,15.90
2018-12-04T11:58:22.065Z,15.80
2018-12-04T12:00:49.665Z,15.10
2018-12-04T12:03:17.231Z,14.60
2018-12-04T12:05:44.758Z,14.70
2018-12-04T12:08:12.304Z,14.70
2018-12-04T12:10:39.850Z,14.50
2018-12-04T12:13:07.405Z,15.10
2018-12-04T12:15:34.941Z,15.00
2018-12-04T12:18:02.536Z,15.40
2018-12-04T12:20:30.068Z,15.60
2018-12-04T12:22:57.654Z,15.30
2018-12-04T12:25:25.184Z,15.60
2018-12-04T12:27:52.738Z,16.10
2018-12-04T12:30:20.271Z,16.20
2018-12-04T12:32:47.833Z,16.90
2018-12-04T12:35:15.381Z,16.80
2018-12-04T12:37:42.957Z,16.60
2018-12-04T12:40:10.525Z,16.90
2018-12-04T12:42:38.097Z,18.00
2018-12-04T12:45:07.124Z,18.30
2018-12-04T12:47:34.719Z,17.80
2018-12-04T12:50:02.603Z,17.40
2018-12-04T12:52:30.185Z,16.80
2018-12-04T12:54:57.727Z,16.30
2018-12-04T12:57:25.250Z,16.00
2018-12-04T12:59:52.868Z,14.80
2018-12-04T13:02:20.407Z,13.10
2018-12-04T13:04:48.035Z,12.30
2018-12-04T13:07:15.572Z,11.60
2018-12-04T13:09:43.120Z,10.80
2018-12-04T13:12:10.654Z,10.40
2018-12-04T13:14:38.282Z,9.90
2018-12-04T13:17:05.879Z,9.60
2018-12-04T13:19:33.423Z,10.20
2018-12-04T13:22:00.982Z,11.30
2018-12-04T13:24:28.544Z,11.40
2018-12-04T13:26:56.120Z,12.00
2018-12-04T13:29:23.674Z,11.90
2018-12-04T13:31:51.250Z,11.10
2018-12-04T13:34:18.813Z,10.40
2018-12-04T13:36:46.370Z,10.70
2018-12-04T13:39:14.303Z,10.90
2018-12-04T13:41:41.902Z,11.60
2018-12-04T13:44:09.459Z,11.50
2018-12-04T13:46:37.003Z,12.10
2018-12-04T13:49:04.586Z,12.20
2018-12-04T13:51:32.176Z,12.40
2018-12-04T13:53:59.756Z,12.20
2018-12-04T13:56:27.519Z,11.30
2018-12-04T13:58:55.110Z,10.70
2018-12-04T14:01:22.651Z,10.10
2018-12-04T14:03:50.313Z,9.80
2018-12-04T14:06:17.928Z,9.30
2018-12-04T14:08:45.652Z,8.80
2018-12-04T14:11:13.347Z,8.60
2018-12-04T14:13:41.431Z,8.60
2018-12-04T14:16:09.134Z,8.60
2018-12-04T14:18:36.710Z,8.50
2018-12-04T14:21:04.284Z,8.40
2018-12-04T14:23:32.085Z,8.40
2018-12-04T14:25:59.656Z,8.30
2018-12-04T14:28:27.344Z,8.30
2018-12-04T14:30:54.931Z,8.20
2018-12-04T14:33:23.269Z,8.30
2018-12-04T14:35:50.897Z,8.20
2018-12-04T14:38:18.461Z,8.00
2018-12-04T14:40:46.079Z,7.90
2018-12-04T14:43:13.685Z,7.70
2018-12-04T14:45:41.262Z,7.70
2018-12-04T14:48:08.924Z,7.50
2018-12-04T14:50:36.629Z,7.50
2018-12-04T14:53:04.236Z,7.50
2018-12-04T14:55:32.541Z,7.50
2018-12-04T14:58:00.255Z,7.40
2018-12-04T15:00:27.951Z,7.30
2018-12-04T15:02:55.866Z,7.30
2018-12-04T15:05:23.515Z,7.20
2018-12-04T15:07:51.173Z,7.10
2018-12-04T15:10:18.851Z,7.20
2018-12-04T15:12:46.529Z,7.10
2018-12-04T15:15:14.198Z,7.10
2018-12-04T15:17:41.822Z,7.00
2018-12-04T15:20:09.398Z,6.90
2018-12-04T15:22:36.973Z,6.90
2018-12-04T15:25:05.029Z,6.90
2018-12-04T15:27:32.622Z,6.80
2018-12-04T15:30:00.264Z,6.70
2018-12-04T15:32:27.820Z,6.70
2018-12-04T15:34:55.405Z,6.70
2018-12-04T15:37:23.061Z,6.70
2018-12-04T15:39:50.601Z,6.60
2018-12-04T15:42:18.191Z,6.60
2018-12-04T15:44:45.801Z,6.60
2018-12-04T15:47:13.402Z,6.60
2018-12-04T15:49:41.028Z,6.50
2018-12-04T15:52:08.604Z,6.50
2018-12-04T15:54:36.260Z,6.50
2018-12-04T15:57:03.892Z,6.50
2018-12-04T15:59:31.463Z,6.50
2018-12-04T16:01:58.989Z,6.40
2018-12-04T16:04:26.533Z,6.50
2018-12-04T16:06:54.072Z,6.40
2018-12-04T16:09:21.644Z,6.30
2018-12-04T16:11:49.198Z,6.20
2018-12-04T16:14:16.747Z,6.20
2018-12-04T16:16:44.283Z,6.20
2018-12-04T16:19:11.829Z,6.20
2018-12-04T16:21:39.354Z,6.20
2018-12-04T16:24:06.933Z,6.10
2018-12-04T16:26:34.462Z,6.00
2018-12-04T16:29:02.008Z,5.90
2018-12-04T16:31:29.593Z,5.90
2018-12-04T16:33:57.148Z,5.80
2018-12-04T16:36:25.098Z,5.70
2018-12-04T16:38:52.655Z,5.60
2018-12-04T16:41:20.322Z,5.60
2018-12-04T16:43:47.926Z,5.50
2018-12-04T16:46:15.465Z,5.50
2018-12-04T16:48:43.055Z,5.50
2018-12-04T16:51:10.585Z,5.40
2018-12-04T16:53:38.304Z,5.30
2018-12-04T16:56:05.843Z,5.30
2018-12-04T16:58:33.425Z,5.40
2018-12-04T17:01:00.988Z,5.30
2018-12-04T17:03:28.700Z,5.30
2018-12-04T17:05:56.263Z,5.30
2018-12-04T17:08:23.802Z,5.30
2018-12-04T17:10:51.361Z,5.20
2018-12-04T17:13:18.887Z,5.10
2018-12-04T17:15:46.450Z,5.10
2018-12-04T17:18:14.040Z,5.10
2018-12-04T17:20:41.624Z,5.00
2018-12-04T17:23:09.173Z,4.90
2018-12-04T17:25:37.991Z,4.90
2018-12-04T17:28:05.589Z,4.90
2018-12-04T17:30:33.242Z,4.80
2018-12-04T17:35:35.655Z,4.90
2018-12-04T17:38:03.188Z,4.90
2018-12-04T17:40:30.756Z,4.80
2018-12-04T17:42:58.380Z,4.70
2018-12-04T17:45:25.970Z,4.70
2018-12-04T17:47:53.507Z,4.70
2018-12-04T17:50:21.083Z,4.60
2018-12-04T17:52:48.608Z,4.60
2018-12-04T17:55:16.246Z,4.60
2018-12-04T17:57:43.808Z,4.50
2018-12-04T18:00:12.693Z,4.50
2018-12-04T18:02:40.226Z,4.50
2018-12-04T18:05:07.861Z,4.50
2018-12-04T18:07:36.121Z,4.40
2018-12-04T18:10:04.478Z,4.40
2018-12-04T18:12:32.118Z,4.40
2018-12-04T18:15:00.017Z,4.30
2018-12-04T18:17:27.574Z,4.30
2018-12-04T18:19:55.282Z,4.20
2018-12-04T18:22:22.900Z,4.20
2018-12-04T18:24:50.524Z,4.10
2018-12-04T18:27:18.166Z,4.10
2018-12-04T18:29:45.732Z,4.10
2018-12-04T18:32:13.290Z,4.10
2018-12-04T18:34:40.947Z,4.10
2018-12-04T18:37:08.492Z,4.10
2018-12-04T18:39:36.017Z,4.00
2018-12-04T18:42:04.331Z,4.00
2018-12-04T18:44:31.894Z,4.00
2018-12-04T18:46:59.454Z,4.00
2018-12-04T18:49:27.041Z,4.00
2018-12-04T18:51:54.605Z,4.00
2018-12-04T18:54:22.158Z,4.00
2018-12-04T18:56:49.714Z,4.00
2018-12-04T18:59:17.375Z,4.00
2018-12-04T19:01:44.988Z,4.00
2018-12-04T19:04:12.542Z,4.00
2018-12-04T19:06:40.130Z,4.00
2018-12-04T19:09:07.819Z,4.00
2018-12-04T19:11:35.369Z,4.00
2018-12-04T19:14:03.858Z,4.00
2018-12-04T19:16:31.418Z,4.00
2018-12-04T19:18:59.018Z,4.00
2018-12-04T19:21:26.593Z,4.00
2018-12-04T19:23:54.140Z,4.00
2018-12-04T19:26:21.668Z,4.00
2018-12-04T19:28:51.821Z,4.00
2018-12-04T19:31:19.394Z,4.00
2018-12-04T19:33:46.964Z,3.90
2018-12-04T19:36:14.574Z,4.00
2018-12-04T19:38:42.245Z,4.00
2018-12-04T19:41:09.991Z,3.90
2018-12-04T19:43:37.870Z,3.90
2018-12-04T19:46:05.520Z,3.90
2018-12-04T19:48:33.135Z,3.90
2018-12-04T19:51:00.757Z,3.90
2018-12-04T19:53:28.519Z,3.90
2018-12-04T19:55:56.093Z,3.90
2018-12-04T19:58:23.844Z,3.90
2018-12-04T20:00:51.481Z,3.90
2018-12-04T20:03:19.376Z,3.90
2018-12-04T20:05:47.130Z,3.80
2018-12-04T20:08:14.903Z,3.80
2018-12-04T20:10:42.485Z,3.70
2018-12-04T20:13:10.231Z,3.80
2018-12-04T20:15:37.818Z,3.70
2018-12-04T20:18:05.544Z,3.70
2018-12-04T20:20:33.421Z,3.70
2018-12-04T20:23:01.039Z,3.70
2018-12-04T20:25:29.158Z,3.70
2018-12-04T20:27:57.128Z,3.70
2018-12-04T20:30:24.993Z,3.80
2018-12-04T20:32:59.684Z,3.60
2018-12-04T20:35:22.357Z,3.60
2018-12-04T20:37:50.252Z,3.60
2018-12-04T20:40:18.215Z,3.60
2018-12-04T20:42:46.073Z,3.60
2018-12-04T20:45:13.709Z,3.60
2018-12-04T20:47:41.309Z,3.60
2018-12-04T20:50:08.982Z,3.60
2018-12-04T20:52:36.683Z,3.60
2018-12-04T20:55:08.692Z,3.60
2018-12-04T20:57:34.469Z,3.60
2018-12-04T21:00:02.224Z,3.60
2018-12-04T21:02:30.833Z,3.60
2018-12-04T21:04:58.880Z,3.50
2018-12-04T21:07:26.467Z,3.50
2018-12-04T21:09:54.212Z,3.40
2018-12-04T21:12:21.943Z,3.40
2018-12-04T21:14:49.747Z,3.30
2018-12-04T21:17:17.350Z,3.30
2018-12-04T21:19:45.050Z,3.40
2018-12-04T21:22:12.693Z,3.40
2018-12-04T21:27:26.544Z,3.30
2018-12-04T21:30:00.072Z,3.30
2018-12-04T21:32:33.328Z,3.30
2018-12-04T21:38:11.670Z,3.30
2018-12-04T21:40:45.112Z,3.30
2018-12-04T21:43:18.928Z,3.30
2018-12-04T21:45:52.073Z,3.30
2018-12-04T21:48:21.627Z,3.40
2018-12-04T21:50:49.246Z,3.30
2018-12-04T21:53:16.868Z,3.20
2018-12-04T21:55:44.456Z,3.20
2018-12-04T21:58:12.042Z,3.20
2018-12-04T22:00:39.705Z,3.20
2018-12-04T22:03:07.286Z,3.10
2018-12-04T22:05:34.927Z,3.10
2018-12-04T22:08:02.507Z,3.10
2018-12-04T22:10:30.144Z,3.10
2018-12-04T22:12:57.739Z,3.10
2018-12-04T22:15:25.343Z,3.10
2018-12-04T22:17:53.059Z,3.10
2018-12-04T22:20:20.672Z,3.10
2018-12-04T22:22:48.285Z,3.10
2018-12-04T22:25:15.881Z,3.00
2018-12-04T22:27:43.467Z,3.00
2018-12-04T22:30:11.143Z,3.00
2018-12-04T22:32:38.739Z,3.00
2018-12-04T22:35:06.402Z,3.00
2018-12-04T22:37:33.995Z,3.00
2018-12-04T22:40:01.617Z,3.00
2018-12-04T22:42:29.210Z,3.00
2018-12-04T22:44:58.754Z,3.00
2018-12-04T22:47:27.731Z,2.90
2018-12-04T22:49:55.341Z,2.90
2018-12-04T22:52:22.974Z,2.90
2018-12-04T22:54:50.531Z,2.90
2018-12-04T22:57:18.193Z,2.90
2018-12-04T22:59:45.855Z,3.00
2018-12-04T23:02:13.427Z,2.90
2018-12-04T23:04:41.080Z,2.90
2018-12-04T23:07:08.719Z,2.90
2018-12-04T23:09:36.349Z,2.90
2018-12-04T23:12:07.277Z,2.90
2018-12-04T23:14:34.861Z,2.90
2018-12-04T23:17:02.571Z,2.80
2018-12-04T23:19:30.284Z,2.80
2018-12-04T23:21:57.908Z,2.80
2018-12-04T23:24:25.562Z,2.70
2018-12-04T23:26:53.139Z,2.70
2018-12-04T23:29:20.726Z,2.70
2018-12-04T23:31:48.284Z,2.70
2018-12-04T23:34:15.893Z,2.60
2018-12-04T23:36:43.465Z,2.60
2018-12-04T23:39:11.039Z,2.60
2018-12-04T23:41:38.657Z,2.60
2018-12-04T23:44:06.316Z,2.60
2018-12-04T23:46:33.911Z,2.60
2018-12-04T23:49:01.497Z,2.50
2018-12-04T23:51:29.122Z,2.50
2018-12-04T23:53:56.712Z,2.50
2018-12-04T23:56:24.300Z,2.50
2018-12-04T23:58:51.876Z,2.50
